sensor_id;sensor_type;location;lat;lon;timestamp;P1;durP1;ratioP1;P2;durP2;ratioP2
53674;SDS011;39574;50.534;8.500;2023-04-24T00:04:27;2.6;;;1.0;;
53674;SDS011;39574;50.534;8.500;2023-04-24T00:09:25;2.3;;;0.9;;
53674;SDS011;39574;50.534;8.500;2023-04-24T00:14:24;1.8;;;0.8;;
53674;SDS011;39574;50.534;8.500;2023-04-24T00:19:23;1.6;;;0.8;;
53674;SDS011;39574;50.534;8.500;2023-04-24T00:24:22;1.8;;;0.8;;
53674;SDS011;39574;50.534;8.500;2023-04-24T00:29:21;2.0;;;0.8;;
53674;SDS011;39574;50.534;8.500;2023-04-24T00:34:21;2.5;;;0.8;;
53674;SDS011;39574;50.534;8.500;2023-04-24T00:39:19;2.4;;;0.8;;
53674;SDS011;39574;50.534;8.500;2023-04-24T00:44:19;2.2;;;0.7;;
53674;SDS011;39574;50.534;8.500;2023-04-24T00:49:18;1.8;;;0.6;;
53674;SDS011;39574;50.534;8.500;2023-04-24T00:54:17;1.9;;;0.7;;
53674;SDS011;39574;50.534;8.500;2023-04-24T00:59:16;2.1;;;0.7;;
53674;SDS011;39574;50.534;8.500;2023-04-24T01:04:15;2.3;;;0.8;;
53674;SDS011;39574;50.534;8.500;2023-04-24T01:09:14;2.4;;;0.9;;
53674;SDS011;39574;50.534;8.500;2023-04-24T01:14:13;2.4;;;0.9;;
53674;SDS011;39574;50.534;8.500;2023-04-24T01:19:12;2.4;;;1.0;;
53674;SDS011;39574;50.534;8.500;2023-04-24T01:24:11;2.3;;;1.1;;
53674;SDS011;39574;50.534;8.500;2023-04-24T01:29:10;2.5;;;1.1;;
53674;SDS011;39574;50.534;8.500;2023-04-24T01:34:09;2.8;;;1.2;;
53674;SDS011;39574;50.534;8.500;2023-04-24T01:39:09;2.6;;;1.1;;
53674;SDS011;39574;50.534;8.500;2023-04-24T01:44:07;2.7;;;1.1;;
53674;SDS011;39574;50.534;8.500;2023-04-24T01:49:07;2.7;;;1.2;;
53674;SDS011;39574;50.534;8.500;2023-04-24T01:54:06;2.8;;;1.4;;
53674;SDS011;39574;50.534;8.500;2023-04-24T01:59:06;3.5;;;1.5;;
53674;SDS011;39574;50.534;8.500;2023-04-24T02:04:04;3.3;;;1.5;;
53674;SDS011;39574;50.534;8.500;2023-04-24T02:09:03;2.9;;;1.5;;
53674;SDS011;39574;50.534;8.500;2023-04-24T02:14:02;2.6;;;1.5;;
53674;SDS011;39574;50.534;8.500;2023-04-24T02:19:01;2.3;;;1.4;;
53674;SDS011;39574;50.534;8.500;2023-04-24T02:24:00;2.2;;;1.3;;
53674;SDS011;39574;50.534;8.500;2023-04-24T02:29:00;1.9;;;1.1;;
53674;SDS011;39574;50.534;8.500;2023-04-24T02:33:58;1.8;;;0.9;;
53674;SDS011;39574;50.534;8.500;2023-04-24T02:38:58;1.6;;;0.8;;
53674;SDS011;39574;50.534;8.500;2023-04-24T02:43:56;1.7;;;0.7;;
53674;SDS011;39574;50.534;8.500;2023-04-24T02:48:55;1.6;;;0.7;;
53674;SDS011;39574;50.534;8.500;2023-04-24T02:53:54;1.5;;;0.7;;
53674;SDS011;39574;50.534;8.500;2023-04-24T02:58:53;1.6;;;0.8;;
53674;SDS011;39574;50.534;8.500;2023-04-24T03:03:52;2.0;;;0.8;;
53674;SDS011;39574;50.534;8.500;2023-04-24T03:08:51;1.9;;;0.9;;
53674;SDS011;39574;50.534;8.500;2023-04-24T03:13:51;2.0;;;0.8;;
53674;SDS011;39574;50.534;8.500;2023-04-24T03:18:50;2.3;;;0.9;;
53674;SDS011;39574;50.534;8.500;2023-04-24T03:23:49;2.2;;;0.9;;
53674;SDS011;39574;50.534;8.500;2023-04-24T03:28:48;2.4;;;0.9;;
53674;SDS011;39574;50.534;8.500;2023-04-24T03:33:47;2.3;;;1.0;;
53674;SDS011;39574;50.534;8.500;2023-04-24T03:38:46;2.4;;;1.0;;
53674;SDS011;39574;50.534;8.500;2023-04-24T03:43:45;2.1;;;1.0;;
53674;SDS011;39574;50.534;8.500;2023-04-24T03:48:44;1.9;;;1.0;;
53674;SDS011;39574;50.534;8.500;2023-04-24T03:53:43;1.8;;;1.0;;
53674;SDS011;39574;50.534;8.500;2023-04-24T03:58:42;2.5;;;1.5;;
53674;SDS011;39574;50.534;8.500;2023-04-24T04:03:41;2.4;;;1.5;;
53674;SDS011;39574;50.534;8.500;2023-04-24T04:08:40;2.6;;;1.6;;
53674;SDS011;39574;50.534;8.500;2023-04-24T04:13:39;3.8;;;1.7;;
53674;SDS011;39574;50.534;8.500;2023-04-24T04:18:37;3.4;;;1.7;;
53674;SDS011;39574;50.534;8.500;2023-04-24T04:23:36;3.6;;;2.0;;
53674;SDS011;39574;50.534;8.500;2023-04-24T04:28:35;3.3;;;2.1;;
53674;SDS011;39574;50.534;8.500;2023-04-24T04:33:34;3.4;;;2.2;;
53674;SDS011;39574;50.534;8.500;2023-04-24T04:38:33;3.4;;;2.4;;
53674;SDS011;39574;50.534;8.500;2023-04-24T04:43:32;3.5;;;2.3;;
53674;SDS011;39574;50.534;8.500;2023-04-24T04:48:31;3.9;;;2.6;;
53674;SDS011;39574;50.534;8.500;2023-04-24T04:53:30;4.0;;;2.6;;
53674;SDS011;39574;50.534;8.500;2023-04-24T04:58:30;4.0;;;2.6;;
53674;SDS011;39574;50.534;8.500;2023-04-24T05:03:28;4.2;;;2.6;;
53674;SDS011;39574;50.534;8.500;2023-04-24T05:08:27;4.2;;;2.4;;
53674;SDS011;39574;50.534;8.500;2023-04-24T05:13:26;4.0;;;2.4;;
53674;SDS011;39574;50.534;8.500;2023-04-24T05:18:25;3.8;;;2.3;;
53674;SDS011;39574;50.534;8.500;2023-04-24T05:23:24;3.7;;;2.2;;
53674;SDS011;39574;50.534;8.500;2023-04-24T05:28:23;4.0;;;2.2;;
53674;SDS011;39574;50.534;8.500;2023-04-24T05:33:22;4.1;;;2.3;;
53674;SDS011;39574;50.534;8.500;2023-04-24T05:38:21;3.9;;;2.5;;
53674;SDS011;39574;50.534;8.500;2023-04-24T05:43:20;3.8;;;2.6;;
53674;SDS011;39574;50.534;8.500;2023-04-24T05:48:19;3.8;;;2.6;;
53674;SDS011;39574;50.534;8.500;2023-04-24T05:53:18;4.2;;;2.6;;
53674;SDS011;39574;50.534;8.500;2023-04-24T05:58:17;3.8;;;2.5;;
53674;SDS011;39574;50.534;8.500;2023-04-24T06:03:16;3.7;;;2.5;;
53674;SDS011;39574;50.534;8.500;2023-04-24T06:08:15;4.0;;;2.5;;
53674;SDS011;39574;50.534;8.500;2023-04-24T06:13:13;4.6;;;3.0;;
53674;SDS011;39574;50.534;8.500;2023-04-24T06:18:12;5.0;;;3.3;;
53674;SDS011;39574;50.534;8.500;2023-04-24T06:23:11;5.2;;;3.5;;
53674;SDS011;39574;50.534;8.500;2023-04-24T06:28:10;5.9;;;3.5;;
53674;SDS011;39574;50.534;8.500;2023-04-24T06:33:09;6.2;;;3.4;;
53674;SDS011;39574;50.534;8.500;2023-04-24T06:38:08;5.8;;;3.5;;
53674;SDS011;39574;50.534;8.500;2023-04-24T06:43:10;5.3;;;3.5;;
53674;SDS011;39574;50.534;8.500;2023-04-24T06:48:07;5.7;;;3.8;;
53674;SDS011;39574;50.534;8.500;2023-04-24T06:53:05;6.7;;;4.0;;
53674;SDS011;39574;50.534;8.500;2023-04-24T06:58:05;6.4;;;4.0;;
53674;SDS011;39574;50.534;8.500;2023-04-24T07:03:03;6.6;;;4.2;;
53674;SDS011;39574;50.534;8.500;2023-04-24T07:08:02;7.1;;;4.4;;
53674;SDS011;39574;50.534;8.500;2023-04-24T07:13:01;8.7;;;4.9;;
53674;SDS011;39574;50.534;8.500;2023-04-24T07:18:00;8.6;;;5.0;;
53674;SDS011;39574;50.534;8.500;2023-04-24T07:22:59;8.0;;;5.0;;
53674;SDS011;39574;50.534;8.500;2023-04-24T07:27:58;7.3;;;4.9;;
53674;SDS011;39574;50.534;8.500;2023-04-24T07:32:58;7.7;;;4.8;;
53674;SDS011;39574;50.534;8.500;2023-04-24T07:37:56;7.1;;;4.7;;
53674;SDS011;39574;50.534;8.500;2023-04-24T07:42:55;6.8;;;4.6;;
53674;SDS011;39574;50.534;8.500;2023-04-24T07:47:54;7.0;;;4.5;;
53674;SDS011;39574;50.534;8.500;2023-04-24T07:52:53;6.6;;;4.2;;
53674;SDS011;39574;50.534;8.500;2023-04-24T07:57:52;7.1;;;4.0;;
53674;SDS011;39574;50.534;8.500;2023-04-24T08:02:51;7.3;;;4.0;;
53674;SDS011;39574;50.534;8.500;2023-04-24T08:07:50;6.8;;;3.9;;
53674;SDS011;39574;50.534;8.500;2023-04-24T08:12:49;6.2;;;3.9;;
53674;SDS011;39574;50.534;8.500;2023-04-24T08:17:48;6.1;;;3.9;;
53674;SDS011;39574;50.534;8.500;2023-04-24T08:22:47;6.0;;;3.8;;
53674;SDS011;39574;50.534;8.500;2023-04-24T08:27:46;6.4;;;3.8;;
53674;SDS011;39574;50.534;8.500;2023-04-24T08:32:45;6.2;;;3.8;;
53674;SDS011;39574;50.534;8.500;2023-04-24T08:37:44;6.2;;;3.8;;
53674;SDS011;39574;50.534;8.500;2023-04-24T08:42:43;6.1;;;3.8;;
53674;SDS011;39574;50.534;8.500;2023-04-24T08:47:42;6.3;;;3.7;;
53674;SDS011;39574;50.534;8.500;2023-04-24T08:52:42;6.7;;;3.6;;
53674;SDS011;39574;50.534;8.500;2023-04-24T08:57:40;6.3;;;3.4;;
53674;SDS011;39574;50.534;8.500;2023-04-24T09:02:40;5.8;;;3.3;;
53674;SDS011;39574;50.534;8.500;2023-04-24T09:07:38;4.8;;;3.1;;
53674;SDS011;39574;50.534;8.500;2023-04-24T09:12:37;5.2;;;3.0;;
53674;SDS011;39574;50.534;8.500;2023-04-24T09:17:36;4.6;;;2.8;;
53674;SDS011;39574;50.534;8.500;2023-04-24T09:22:36;4.6;;;2.7;;
53674;SDS011;39574;50.534;8.500;2023-04-24T09:27:34;4.8;;;2.7;;
53674;SDS011;39574;50.534;8.500;2023-04-24T09:32:33;4.9;;;2.5;;
53674;SDS011;39574;50.534;8.500;2023-04-24T09:37:34;4.7;;;2.4;;
53674;SDS011;39574;50.534;8.500;2023-04-24T09:42:31;4.4;;;2.3;;
53674;SDS011;39574;50.534;8.500;2023-04-24T09:47:35;4.6;;;2.2;;
53674;SDS011;39574;50.534;8.500;2023-04-24T09:52:29;3.9;;;2.1;;
53674;SDS011;39574;50.534;8.500;2023-04-24T09:57:29;3.5;;;2.1;;
53674;SDS011;39574;50.534;8.500;2023-04-24T10:02:27;3.5;;;2.0;;
53674;SDS011;39574;50.534;8.500;2023-04-24T10:07:26;3.4;;;1.9;;
53674;SDS011;39574;50.534;8.500;2023-04-24T10:12:26;3.2;;;1.9;;
53674;SDS011;39574;50.534;8.500;2023-04-24T10:17:25;2.8;;;1.7;;
53674;SDS011;39574;50.534;8.500;2023-04-24T10:22:23;2.2;;;1.4;;
53674;SDS011;39574;50.534;8.500;2023-04-24T10:27:22;1.8;;;1.1;;
53674;SDS011;39574;50.534;8.500;2023-04-24T10:32:21;2.1;;;0.9;;
53674;SDS011;39574;50.534;8.500;2023-04-24T10:37:20;1.8;;;0.8;;
53674;SDS011;39574;50.534;8.500;2023-04-24T10:42:19;1.4;;;0.7;;
53674;SDS011;39574;50.534;8.500;2023-04-24T10:47:18;1.4;;;0.7;;
53674;SDS011;39574;50.534;8.500;2023-04-24T10:52:17;1.3;;;0.7;;
53674;SDS011;39574;50.534;8.500;2023-04-24T10:57:32;1.4;;;0.6;;
53674;SDS011;39574;50.534;8.500;2023-04-24T11:02:15;1.5;;;0.5;;
53674;SDS011;39574;50.534;8.500;2023-04-24T11:07:15;1.2;;;0.4;;
53674;SDS011;39574;50.534;8.500;2023-04-24T11:12:13;1.1;;;0.4;;
53674;SDS011;39574;50.534;8.500;2023-04-24T11:17:26;1.2;;;0.6;;
53674;SDS011;39574;50.534;8.500;2023-04-24T11:22:13;1.0;;;0.5;;
53674;SDS011;39574;50.534;8.500;2023-04-24T11:27:11;1.0;;;0.5;;
53674;SDS011;39574;50.534;8.500;2023-04-24T11:32:18;0.9;;;0.5;;
53674;SDS011;39574;50.534;8.500;2023-04-24T11:37:08;1.0;;;0.5;;
53674;SDS011;39574;50.534;8.500;2023-04-24T11:42:07;1.1;;;0.5;;
53674;SDS011;39574;50.534;8.500;2023-04-24T11:47:06;1.1;;;0.6;;
53674;SDS011;39574;50.534;8.500;2023-04-24T11:52:05;1.0;;;0.6;;
53674;SDS011;39574;50.534;8.500;2023-04-24T11:57:04;1.0;;;0.5;;
53674;SDS011;39574;50.534;8.500;2023-04-24T12:02:03;1.1;;;0.6;;
53674;SDS011;39574;50.534;8.500;2023-04-24T12:07:02;1.4;;;0.6;;
53674;SDS011;39574;50.534;8.500;2023-04-24T12:12:01;1.7;;;0.9;;
53674;SDS011;39574;50.534;8.500;2023-04-24T12:17:00;1.9;;;1.2;;
53674;SDS011;39574;50.534;8.500;2023-04-24T12:22:00;2.1;;;1.3;;
53674;SDS011;39574;50.534;8.500;2023-04-24T12:26:58;2.9;;;1.6;;
53674;SDS011;39574;50.534;8.500;2023-04-24T12:31:57;2.9;;;1.6;;
53674;SDS011;39574;50.534;8.500;2023-04-24T12:36:56;3.4;;;1.7;;
53674;SDS011;39574;50.534;8.500;2023-04-24T12:41:55;3.5;;;1.9;;
53674;SDS011;39574;50.534;8.500;2023-04-24T12:46:54;3.5;;;1.8;;
53674;SDS011;39574;50.534;8.500;2023-04-24T12:51:53;3.7;;;1.8;;
53674;SDS011;39574;50.534;8.500;2023-04-24T12:56:52;3.5;;;1.9;;
53674;SDS011;39574;50.534;8.500;2023-04-24T13:01:51;3.7;;;2.3;;
53674;SDS011;39574;50.534;8.500;2023-04-24T13:06:50;4.8;;;3.0;;
53674;SDS011;39574;50.534;8.500;2023-04-24T13:11:49;6.0;;;3.5;;
53674;SDS011;39574;50.534;8.500;2023-04-24T13:16:48;6.7;;;4.1;;
53674;SDS011;39574;50.534;8.500;2023-04-24T13:21:47;7.0;;;4.3;;
53674;SDS011;39574;50.534;8.500;2023-04-24T13:26:46;10.4;;;6.5;;
53674;SDS011;39574;50.534;8.500;2023-04-24T13:31:45;9.4;;;5.3;;
53674;SDS011;39574;50.534;8.500;2023-04-24T13:36:44;7.5;;;4.2;;
53674;SDS011;39574;50.534;8.500;2023-04-24T13:41:43;8.9;;;5.0;;
53674;SDS011;39574;50.534;8.500;2023-04-24T13:46:42;10.2;;;5.8;;
53674;SDS011;39574;50.534;8.500;2023-04-24T13:51:41;9.7;;;5.5;;
53674;SDS011;39574;50.534;8.500;2023-04-24T13:56:40;8.4;;;5.0;;
53674;SDS011;39574;50.534;8.500;2023-04-24T14:01:38;7.4;;;4.0;;
53674;SDS011;39574;50.534;8.500;2023-04-24T14:06:38;7.2;;;4.2;;
53674;SDS011;39574;50.534;8.500;2023-04-24T14:11:37;6.7;;;3.8;;
53674;SDS011;39574;50.534;8.500;2023-04-24T14:16:36;6.6;;;3.9;;
53674;SDS011;39574;50.534;8.500;2023-04-24T14:21:35;6.1;;;3.6;;
53674;SDS011;39574;50.534;8.500;2023-04-24T14:26:34;6.0;;;3.3;;
53674;SDS011;39574;50.534;8.500;2023-04-24T14:31:33;6.0;;;3.3;;
53674;SDS011;39574;50.534;8.500;2023-04-24T14:36:32;6.6;;;3.2;;
53674;SDS011;39574;50.534;8.500;2023-04-24T14:41:31;6.2;;;3.3;;
53674;SDS011;39574;50.534;8.500;2023-04-24T14:46:30;7.1;;;4.0;;
53674;SDS011;39574;50.534;8.500;2023-04-24T14:51:29;9.5;;;5.1;;
53674;SDS011;39574;50.534;8.500;2023-04-24T14:56:28;8.4;;;4.8;;
53674;SDS011;39574;50.534;8.500;2023-04-24T15:01:27;7.9;;;4.4;;
53674;SDS011;39574;50.534;8.500;2023-04-24T15:06:26;6.3;;;3.6;;
53674;SDS011;39574;50.534;8.500;2023-04-24T15:11:25;5.9;;;3.5;;
53674;SDS011;39574;50.534;8.500;2023-04-24T15:16:24;7.1;;;3.7;;
53674;SDS011;39574;50.534;8.500;2023-04-24T15:21:23;7.2;;;3.7;;
53674;SDS011;39574;50.534;8.500;2023-04-24T15:26:22;6.7;;;3.5;;
53674;SDS011;39574;50.534;8.500;2023-04-24T15:31:21;6.6;;;3.6;;
53674;SDS011;39574;50.534;8.500;2023-04-24T15:36:20;7.2;;;3.7;;
53674;SDS011;39574;50.534;8.500;2023-04-24T15:41:20;6.9;;;3.6;;
53674;SDS011;39574;50.534;8.500;2023-04-24T15:46:18;7.4;;;3.8;;
53674;SDS011;39574;50.534;8.500;2023-04-24T15:51:17;7.2;;;3.8;;
53674;SDS011;39574;50.534;8.500;2023-04-24T15:56:16;6.6;;;3.9;;
53674;SDS011;39574;50.534;8.500;2023-04-24T16:01:15;7.0;;;4.1;;
53674;SDS011;39574;50.534;8.500;2023-04-24T16:06:15;7.0;;;4.1;;
53674;SDS011;39574;50.534;8.500;2023-04-24T16:11:13;7.2;;;4.1;;
53674;SDS011;39574;50.534;8.500;2023-04-24T16:16:13;6.8;;;4.0;;
53674;SDS011;39574;50.534;8.500;2023-04-24T16:21:12;6.8;;;4.0;;
53674;SDS011;39574;50.534;8.500;2023-04-24T16:26:11;7.0;;;4.0;;
53674;SDS011;39574;50.534;8.500;2023-04-24T16:31:10;6.5;;;3.9;;
53674;SDS011;39574;50.534;8.500;2023-04-24T16:36:09;6.9;;;3.8;;
53674;SDS011;39574;50.534;8.500;2023-04-24T16:41:08;6.3;;;3.8;;
53674;SDS011;39574;50.534;8.500;2023-04-24T16:46:07;7.2;;;3.9;;
53674;SDS011;39574;50.534;8.500;2023-04-24T16:51:06;7.8;;;4.0;;
53674;SDS011;39574;50.534;8.500;2023-04-24T16:56:05;7.5;;;4.0;;
53674;SDS011;39574;50.534;8.500;2023-04-24T17:01:04;6.8;;;3.8;;
53674;SDS011;39574;50.534;8.500;2023-04-24T17:06:03;6.7;;;3.8;;
53674;SDS011;39574;50.534;8.500;2023-04-24T17:11:02;8.1;;;4.0;;
53674;SDS011;39574;50.534;8.500;2023-04-24T17:16:01;8.1;;;4.1;;
53674;SDS011;39574;50.534;8.500;2023-04-24T17:21:00;7.4;;;4.0;;
53674;SDS011;39574;50.534;8.500;2023-04-24T17:25:59;8.5;;;4.0;;
53674;SDS011;39574;50.534;8.500;2023-04-24T17:30:58;8.0;;;4.0;;
53674;SDS011;39574;50.534;8.500;2023-04-24T17:35:58;8.7;;;4.1;;
53674;SDS011;39574;50.534;8.500;2023-04-24T17:40:57;8.9;;;4.5;;
53674;SDS011;39574;50.534;8.500;2023-04-24T17:45:57;8.3;;;4.6;;
53674;SDS011;39574;50.534;8.500;2023-04-24T17:50:54;8.6;;;4.7;;
53674;SDS011;39574;50.534;8.500;2023-04-24T17:55:53;9.3;;;4.7;;
53674;SDS011;39574;50.534;8.500;2023-04-24T18:00:52;8.5;;;4.5;;
53674;SDS011;39574;50.534;8.500;2023-04-24T18:05:51;9.0;;;4.5;;
53674;SDS011;39574;50.534;8.500;2023-04-24T18:10:50;9.3;;;4.5;;
53674;SDS011;39574;50.534;8.500;2023-04-24T18:15:49;8.0;;;4.4;;
53674;SDS011;39574;50.534;8.500;2023-04-24T18:20:48;7.8;;;4.5;;
53674;SDS011;39574;50.534;8.500;2023-04-24T18:25:47;7.6;;;4.6;;
53674;SDS011;39574;50.534;8.500;2023-04-24T18:30:46;7.1;;;4.5;;
53674;SDS011;39574;50.534;8.500;2023-04-24T18:35:45;7.8;;;4.4;;
53674;SDS011;39574;50.534;8.500;2023-04-24T18:45:43;7.5;;;4.3;;
53674;SDS011;39574;50.534;8.500;2023-04-24T18:50:42;7.3;;;4.3;;
53674;SDS011;39574;50.534;8.500;2023-04-24T18:55:41;8.9;;;5.3;;
53674;SDS011;39574;50.534;8.500;2023-04-24T19:00:40;9.3;;;5.5;;
53674;SDS011;39574;50.534;8.500;2023-04-24T19:05:39;9.5;;;5.7;;
53674;SDS011;39574;50.534;8.500;2023-04-24T19:10:38;8.9;;;5.2;;
53674;SDS011;39574;50.534;8.500;2023-04-24T19:15:37;9.1;;;5.1;;
53674;SDS011;39574;50.534;8.500;2023-04-24T19:20:36;8.8;;;5.2;;
53674;SDS011;39574;50.534;8.500;2023-04-24T19:25:35;8.5;;;5.1;;
53674;SDS011;39574;50.534;8.500;2023-04-24T19:30:34;8.7;;;5.2;;
53674;SDS011;39574;50.534;8.500;2023-04-24T19:35:33;8.2;;;5.3;;
53674;SDS011;39574;50.534;8.500;2023-04-24T19:40:33;9.4;;;5.7;;
53674;SDS011;39574;50.534;8.500;2023-04-24T19:45:32;9.8;;;6.2;;
53674;SDS011;39574;50.534;8.500;2023-04-24T19:50:31;10.3;;;6.4;;
53674;SDS011;39574;50.534;8.500;2023-04-24T19:55:30;10.9;;;6.5;;
53674;SDS011;39574;50.534;8.500;2023-04-24T20:00:29;10.2;;;6.1;;
53674;SDS011;39574;50.534;8.500;2023-04-24T20:05:28;10.5;;;6.4;;
53674;SDS011;39574;50.534;8.500;2023-04-24T20:10:27;10.2;;;6.4;;
53674;SDS011;39574;50.534;8.500;2023-04-24T20:15:26;10.4;;;6.4;;
53674;SDS011;39574;50.534;8.500;2023-04-24T20:20:25;10.2;;;6.4;;
53674;SDS011;39574;50.534;8.500;2023-04-24T20:25:24;10.9;;;6.7;;
53674;SDS011;39574;50.534;8.500;2023-04-24T20:30:23;10.3;;;6.7;;
53674;SDS011;39574;50.534;8.500;2023-04-24T20:35:21;9.9;;;6.6;;
53674;SDS011;39574;50.534;8.500;2023-04-24T20:40:20;9.1;;;6.4;;
53674;SDS011;39574;50.534;8.500;2023-04-24T20:45:19;9.5;;;6.3;;
53674;SDS011;39574;50.534;8.500;2023-04-24T20:50:18;10.1;;;6.7;;
53674;SDS011;39574;50.534;8.500;2023-04-24T20:55:17;10.8;;;7.0;;
53674;SDS011;39574;50.534;8.500;2023-04-24T21:00:17;11.4;;;7.1;;
53674;SDS011;39574;50.534;8.500;2023-04-24T21:05:15;12.2;;;7.3;;
53674;SDS011;39574;50.534;8.500;2023-04-24T21:10:14;11.8;;;7.2;;
53674;SDS011;39574;50.534;8.500;2023-04-24T21:15:13;11.5;;;7.3;;
53674;SDS011;39574;50.534;8.500;2023-04-24T21:20:12;11.8;;;7.4;;
53674;SDS011;39574;50.534;8.500;2023-04-24T21:25:11;12.5;;;8.2;;
53674;SDS011;39574;50.534;8.500;2023-04-24T21:30:10;13.2;;;8.3;;
53674;SDS011;39574;50.534;8.500;2023-04-24T21:35:09;14.1;;;8.9;;
53674;SDS011;39574;50.534;8.500;2023-04-24T21:40:08;14.4;;;8.8;;
53674;SDS011;39574;50.534;8.500;2023-04-24T21:45:07;13.9;;;8.4;;
53674;SDS011;39574;50.534;8.500;2023-04-24T21:50:06;13.5;;;8.5;;
53674;SDS011;39574;50.534;8.500;2023-04-24T21:55:05;13.6;;;8.4;;
53674;SDS011;39574;50.534;8.500;2023-04-24T22:00:04;13.0;;;8.1;;
53674;SDS011;39574;50.534;8.500;2023-04-24T22:05:03;13.4;;;8.3;;
53674;SDS011;39574;50.534;8.500;2023-04-24T22:10:02;13.6;;;8.4;;
53674;SDS011;39574;50.534;8.500;2023-04-24T22:15:01;14.5;;;8.9;;
53674;SDS011;39574;50.534;8.500;2023-04-24T22:20:00;13.8;;;8.7;;
53674;SDS011;39574;50.534;8.500;2023-04-24T22:24:59;14.0;;;8.8;;
53674;SDS011;39574;50.534;8.500;2023-04-24T22:29:58;14.6;;;9.1;;
53674;SDS011;39574;50.534;8.500;2023-04-24T22:34:57;14.8;;;9.0;;
53674;SDS011;39574;50.534;8.500;2023-04-24T22:39:56;15.8;;;9.4;;
53674;SDS011;39574;50.534;8.500;2023-04-24T22:44:54;15.5;;;9.4;;
53674;SDS011;39574;50.534;8.500;2023-04-24T22:49:53;16.0;;;9.6;;
53674;SDS011;39574;50.534;8.500;2023-04-24T22:54:52;16.9;;;9.9;;
53674;SDS011;39574;50.534;8.500;2023-04-24T22:59:52;16.8;;;10.0;;
53674;SDS011;39574;50.534;8.500;2023-04-24T23:04:50;17.9;;;10.1;;
53674;SDS011;39574;50.534;8.500;2023-04-24T23:09:49;16.7;;;10.1;;
53674;SDS011;39574;50.534;8.500;2023-04-24T23:14:48;16.3;;;10.0;;
53674;SDS011;39574;50.534;8.500;2023-04-24T23:19:47;16.1;;;10.0;;
53674;SDS011;39574;50.534;8.500;2023-04-24T23:24:46;15.6;;;10.0;;
53674;SDS011;39574;50.534;8.500;2023-04-24T23:29:45;16.2;;;10.3;;
53674;SDS011;39574;50.534;8.500;2023-04-24T23:34:44;16.9;;;10.7;;
53674;SDS011;39574;50.534;8.500;2023-04-24T23:39:43;15.8;;;10.4;;
53674;SDS011;39574;50.534;8.500;2023-04-24T23:44:42;15.2;;;10.0;;
53674;SDS011;39574;50.534;8.500;2023-04-24T23:49:41;15.7;;;10.0;;
53674;SDS011;39574;50.534;8.500;2023-04-24T23:54:40;15.5;;;10.2;;
53674;SDS011;39574;50.534;8.500;2023-04-24T23:59:39;17.3;;;10.5;;
